Locust, Kentucky
Current Conditions -  °F | °C
As of 1:12 PM on Sunday 25 Jan 2015 (Local Time) from KIMS Reporting Station
Overcast Overcast  
Wind Chill: 33°   Ceiling: 3700
Heat Index: 37°   Visibility: 7mi
Dew Point: 34°   Wind: 6mph
Humidity: 87%   Direction: 120°ESE
Pressure: 29.68"   Gusts: NA
Location:  38.6825°N, 85.3715°W
Report Text: KIMS 251812Z AUTO 12005KT 7SM OVC037 03/01 A2968 RMK AO1
Loading
Personal Weather Stations






























Interactive Weather Map New forecast layout! Learn more

10-Day Weather Forecast

Advertisements
Track Severe Weather on mobile